KORF/ORF METAR and TAF weather

Enter ICAO airport designator
Station Type Date Time Source
KORF METAR 2021/05/14 20:51 UTC NOAA

KORF 142051Z 04006KT 10SM CLR 22/03 A3021 RMK AO2 SLP231 T02170028 58008


Station Type Date Time Source
KORF Decoded METAR 2021/05/14 20:51 UTC NOAA

NORFOLK INTERNATIONAL AIRPORT , VA, United States (KORF) 36-54N 076-12W 14M
May 14, 2021 - 04:51 PM EDT / 2021.05.14 2051 UTC
Wind: from the NE (040 degrees) at 7 MPH (6 KT):0
Visibility: 10 mile(s):0
Sky conditions: clear
Temperature: 71.1 F (21.7 C)
Dew Point: 37.0 F (2.8 C)
Relative Humidity: 28%
Pressure (altimeter): 30.21 in. Hg (1023 hPa)
Pressure tendency: 0.02 inches (0.8 hPa) lower than three hours ago
ob: KORF 142051Z 04006KT 10SM CLR 22/03 A3021 RMK AO2 SLP231 T02170028 58008
cycle: 21

Station Type Date Time Source
KORF TAF 2021/05/14 18:21 UTC NOAA

TAF KORF 141720Z 1418/1518 03007KT P6SM SKC
FM142100 07008KT P6SM SKC
FM142300 11006KT P6SM SKC
FM150300 17004KT P6SM SKC
FM151400 35004KT P6SM SCT200

Example: see airport list